createdAt,value
2018-12-16T00:00:47.432Z,100898.83
2018-12-16T00:03:17.212Z,100902.36
2018-12-16T00:05:47.352Z,100902.50
2018-12-16T00:08:17.620Z,100906.51
2018-12-16T00:10:47.351Z,100899.45
2018-12-16T00:13:17.135Z,100899.89
2018-12-16T00:15:47.446Z,100896.36
2018-12-16T00:18:17.191Z,100898.59
2018-12-16T00:20:47.324Z,100890.77
2018-12-16T00:23:17.336Z,100892.98
2018-12-16T00:25:47.443Z,100897.73
2018-12-16T00:28:18.111Z,100900.19
2018-12-16T00:30:49.649Z,100895.74
2018-12-16T00:33:19.388Z,100895.69
2018-12-16T00:35:49.269Z,100888.24
2018-12-16T00:38:20.157Z,100884.24
2018-12-16T00:40:50.046Z,100885.16
2018-12-16T00:43:20.376Z,100879.70
2018-12-16T00:45:50.570Z,100887.47
2018-12-16T00:48:21.603Z,100879.86
2018-12-16T00:50:51.348Z,100880.24
2018-12-16T00:53:21.175Z,100881.16
2018-12-16T00:55:51.350Z,100877.78
2018-12-16T00:58:21.520Z,100880.39
2018-12-16T01:00:51.343Z,100879.09
2018-12-16T01:03:21.328Z,100880.16
2018-12-16T01:05:51.207Z,100874.88
2018-12-16T01:08:21.251Z,100803.16
2018-12-16T01:10:51.324Z,100878.70
2018-12-16T01:13:21.124Z,100877.48
2018-12-16T01:15:52.057Z,100874.20
2018-12-16T01:18:22.764Z,100867.05
2018-12-16T01:20:52.706Z,100866.58
2018-12-16T01:23:22.462Z,100865.72
2018-12-16T01:25:52.325Z,100869.87
2018-12-16T01:28:22.765Z,100862.19
2018-12-16T01:30:52.522Z,100860.12
2018-12-16T01:33:22.444Z,100863.64
2018-12-16T01:35:52.526Z,100843.61
2018-12-16T01:38:23.884Z,100848.38
2018-12-16T01:40:53.732Z,100846.22
2018-12-16T01:43:23.467Z,100834.81
2018-12-16T01:45:53.226Z,100837.41
2018-12-16T01:48:23.429Z,100832.20
2018-12-16T01:50:53.729Z,100822.75
2018-12-16T01:53:23.540Z,100828.05
2018-12-16T01:55:53.722Z,100818.92
2018-12-16T01:58:23.468Z,100821.98
2018-12-16T02:00:53.460Z,100808.94
2018-12-16T02:03:23.828Z,100810.78
2018-12-16T02:05:53.582Z,100803.81
2018-12-16T02:08:23.426Z,100794.30
2018-12-16T02:10:54.323Z,100798.66
2018-12-16T02:13:24.318Z,100799.97
2018-12-16T02:15:54.413Z,100790.02
2018-12-16T02:18:24.306Z,100786.54
2018-12-16T02:20:54.544Z,100786.09
2018-12-16T02:23:25.034Z,100781.33
2018-12-16T02:25:55.559Z,100764.44
2018-12-16T02:28:25.744Z,100781.41
2018-12-16T02:30:55.520Z,100781.86
2018-12-16T02:33:26.419Z,100778.87
2018-12-16T02:35:56.733Z,100781.48
2018-12-16T02:38:26.546Z,100777.18
2018-12-16T02:40:56.489Z,100775.87
2018-12-16T02:43:27.271Z,100774.19
2018-12-16T02:45:59.169Z,100775.11
2018-12-16T02:48:29.422Z,100753.78
2018-12-16T02:50:59.200Z,100762.61
2018-12-16T02:53:29.336Z,100761.84
2018-12-16T02:55:59.456Z,100757.31
2018-12-16T02:58:29.283Z,100748.72
2018-12-16T03:12:07.845Z,100741.59
2018-12-16T03:14:38.176Z,100741.05
2018-12-16T03:17:08.172Z,100737.35
2018-12-16T03:19:38.284Z,100740.49
2018-12-16T03:22:08.593Z,100736.58
2018-12-16T03:24:39.652Z,100736.58
2018-12-16T03:27:09.595Z,100737.88
2018-12-16T03:29:39.452Z,100731.84
2018-12-16T03:32:09.578Z,100735.37
2018-12-16T03:34:39.438Z,100730.69
2018-12-16T03:37:09.482Z,100722.02
2018-12-16T03:39:39.500Z,100715.50
2018-12-16T03:42:09.269Z,100714.29
2018-12-16T03:44:39.297Z,100710.91
2018-12-16T03:47:09.352Z,100703.22
2018-12-16T03:49:39.138Z,100698.92
2018-12-16T03:52:09.312Z,100629.31
2018-12-16T03:54:39.707Z,100690.19
2018-12-16T03:57:09.547Z,100688.17
2018-12-16T03:59:39.347Z,100685.66
2018-12-16T04:02:09.418Z,100677.52
2018-12-16T04:04:39.317Z,100683.59
2018-12-16T04:07:09.136Z,100671.63
2018-12-16T04:09:39.330Z,100672.60
2018-12-16T04:14:55.969Z,100674.14
2018-12-16T04:17:25.972Z,100672.07
2018-12-16T04:19:56.090Z,100679.11
2018-12-16T04:22:26.316Z,100641.47
2018-12-16T04:24:56.206Z,100665.86
2018-12-16T04:27:26.318Z,100662.87
2018-12-16T04:29:56.545Z,100660.02
2018-12-16T04:32:26.324Z,100663.60
2018-12-16T04:34:56.037Z,100656.32
2018-12-16T04:37:26.399Z,100655.02
2018-12-16T04:39:57.481Z,100648.75
2018-12-16T04:42:27.355Z,100648.89
2018-12-16T04:44:57.176Z,100652.41
2018-12-16T04:47:27.713Z,100652.08
2018-12-16T04:49:57.618Z,100648.27
2018-12-16T04:52:27.435Z,100641.42
2018-12-16T04:54:57.559Z,100645.86
2018-12-16T04:57:27.507Z,100645.56
2018-12-16T04:59:57.303Z,100645.62
2018-12-16T05:02:27.164Z,100643.11
2018-12-16T05:04:57.353Z,100633.22
2018-12-16T05:07:27.359Z,100633.75
2018-12-16T05:10:06.986Z,100631.68
2018-12-16T05:12:37.487Z,100631.34
2018-12-16T05:15:07.564Z,100626.23
2018-12-16T05:17:37.756Z,100621.61
2018-12-16T05:20:07.684Z,100626.91
2018-12-16T05:22:37.693Z,100626.10
2018-12-16T05:25:07.735Z,100626.24
2018-12-16T05:27:37.822Z,100622.87
2018-12-16T05:30:08.699Z,100623.48
2018-12-16T05:32:38.558Z,100611.06
2018-12-16T05:35:08.921Z,100610.81
2018-12-16T05:37:39.167Z,100607.44
2018-12-16T05:40:09.288Z,100604.54
2018-12-16T05:42:39.723Z,100599.92
2018-12-16T05:45:10.102Z,100602.61
2018-12-16T05:47:40.339Z,100600.45
2018-12-16T05:50:11.265Z,100600.53
2018-12-16T05:52:41.565Z,100593.70
2018-12-16T05:55:11.334Z,100598.12
2018-12-16T05:57:41.157Z,100596.91
2018-12-16T06:00:12.740Z,100594.84
2018-12-16T06:02:42.595Z,100599.65
2018-12-16T06:05:12.847Z,100598.93
2018-12-16T06:07:42.644Z,100576.36
2018-12-16T06:10:12.525Z,100597.13
2018-12-16T06:12:42.401Z,100597.52
2018-12-16T06:15:12.443Z,100595.00
2018-12-16T06:17:42.427Z,100600.26
2018-12-16T06:20:13.177Z,100605.59
2018-12-16T06:22:43.552Z,100604.43
2018-12-16T06:25:13.393Z,100607.50
2018-12-16T06:27:43.224Z,100604.95
2018-12-16T06:30:14.157Z,100599.12
2018-12-16T06:32:44.828Z,100572.00
2018-12-16T06:35:14.857Z,100599.77
2018-12-16T06:37:44.603Z,100598.09
2018-12-16T06:40:14.624Z,100596.34
2018-12-16T06:42:44.343Z,100595.10
2018-12-16T06:45:14.320Z,100590.81
2018-12-16T06:47:49.095Z,100588.22
2018-12-16T06:50:19.071Z,100583.93
2018-12-16T06:52:49.470Z,100585.31
2018-12-16T06:55:19.416Z,100583.11
2018-12-16T06:57:49.258Z,100584.84
2018-12-16T07:00:19.532Z,100589.98
2018-12-16T07:02:53.289Z,100583.41
2018-12-16T07:05:24.135Z,100583.88
2018-12-16T07:07:54.230Z,100581.59
2018-12-16T07:10:24.459Z,100463.78
2018-12-16T07:12:54.766Z,100590.16
2018-12-16T07:15:24.724Z,100582.75
2018-12-16T07:17:54.775Z,100583.13
2018-12-16T07:20:24.571Z,100582.61
2018-12-16T07:22:54.406Z,100586.37
2018-12-16T07:25:24.430Z,100581.56
2018-12-16T07:27:54.862Z,100575.84
2018-12-16T07:30:25.572Z,100585.71
2018-12-16T07:32:56.306Z,100588.70
2018-12-16T07:35:26.527Z,100592.55
2018-12-16T07:37:56.494Z,100591.55
2018-12-16T07:40:26.432Z,100588.03
2018-12-16T07:42:56.456Z,100588.80
2018-12-16T07:45:26.429Z,100592.66
2018-12-16T07:47:57.342Z,100588.23
2018-12-16T07:50:27.670Z,100586.45
2018-12-16T07:52:57.903Z,100590.30
2018-12-16T07:55:28.372Z,100593.67
2018-12-16T07:57:59.252Z,100585.41
2018-12-16T08:00:29.452Z,100274.34
2018-12-16T08:03:01.772Z,100587.81
2018-12-16T08:05:33.266Z,100594.22
2018-12-16T08:08:03.235Z,100596.69
2018-12-16T08:10:33.402Z,100597.02
2018-12-16T08:13:03.709Z,100586.53
2018-12-16T08:15:33.673Z,100587.69
2018-12-16T08:18:03.565Z,100587.55
2018-12-16T08:20:33.621Z,100590.48
2018-12-16T08:23:03.606Z,100586.88
2018-12-16T08:25:33.613Z,100582.06
2018-12-16T08:28:03.477Z,100586.67
2018-12-16T08:30:33.829Z,100581.77
2018-12-16T08:33:04.289Z,100579.02
2018-12-16T08:35:34.814Z,100577.72
2018-12-16T08:38:05.139Z,100579.27
2018-12-16T08:40:35.824Z,100577.38
2018-12-16T08:43:05.919Z,100578.09
2018-12-16T08:45:36.459Z,100579.01
2018-12-16T08:48:06.892Z,100576.41
2018-12-16T08:50:37.293Z,100578.48
2018-12-16T08:53:10.192Z,100581.85
2018-12-16T08:55:41.898Z,100582.09
2018-12-16T08:58:12.414Z,100582.86
2018-12-16T09:00:45.474Z,100579.25
2018-12-16T09:03:15.702Z,100575.67
2018-12-16T09:05:45.890Z,100565.27
2018-12-16T09:08:16.183Z,100562.57
2018-12-16T09:10:46.695Z,100561.66
2018-12-16T09:13:16.792Z,100561.89
2018-12-16T09:15:49.355Z,100553.48
2018-12-16T09:18:19.435Z,100561.15
2018-12-16T09:20:49.725Z,100555.47
2018-12-16T09:23:19.492Z,100555.02
2018-12-16T09:25:49.640Z,100548.37
2018-12-16T09:28:19.889Z,100544.22
2018-12-16T09:30:50.197Z,100545.46
2018-12-16T09:33:20.225Z,100539.56
2018-12-16T09:35:50.374Z,100544.16
2018-12-16T09:38:20.669Z,100548.36
2018-12-16T09:40:50.519Z,100544.54
2018-12-16T09:43:20.296Z,100542.70
2018-12-16T09:45:50.759Z,100539.23
2018-12-16T09:48:21.004Z,100547.05
2018-12-16T09:50:51.100Z,100543.09
2018-12-16T09:53:21.452Z,100541.63
2018-12-16T09:56:11.886Z,100540.33
2018-12-16T09:58:42.174Z,100549.44
2018-12-16T10:01:12.115Z,100530.06
2018-12-16T10:03:42.356Z,100532.96
2018-12-16T10:06:12.178Z,100524.61
2018-12-16T10:08:42.311Z,100528.30
2018-12-16T10:11:12.507Z,100524.09
2018-12-16T10:13:42.528Z,100518.17
2018-12-16T10:16:12.687Z,100512.20
2018-12-16T10:18:42.871Z,100504.87
2018-12-16T10:21:13.233Z,100495.98
2018-12-16T10:23:43.668Z,100495.50
2018-12-16T10:26:13.718Z,100498.73
2018-12-16T10:28:43.615Z,100490.55
2018-12-16T10:31:14.644Z,100495.34
2018-12-16T10:33:44.631Z,100496.20
2018-12-16T10:36:14.488Z,100341.38
2018-12-16T10:38:44.554Z,100493.41
2018-12-16T10:41:14.530Z,100471.69
2018-12-16T10:43:44.475Z,100481.47
2018-12-16T10:46:14.478Z,100478.48
2018-12-16T10:48:44.523Z,100484.33
2018-12-16T10:51:14.407Z,100485.78
2018-12-16T10:53:44.473Z,100486.30
2018-12-16T10:56:14.409Z,100482.94
2018-12-16T10:58:44.789Z,100485.22
2018-12-16T11:01:19.565Z,100485.76
2018-12-16T11:03:49.581Z,100477.78
2018-12-16T11:06:19.583Z,100391.56
2018-12-16T11:08:51.257Z,100473.11
2018-12-16T11:11:21.195Z,100380.13
2018-12-16T11:13:51.289Z,100454.02
2018-12-16T11:16:21.793Z,100438.00
2018-12-16T11:18:51.841Z,100451.02
2018-12-16T11:21:21.824Z,100446.51
2018-12-16T11:23:53.979Z,100446.09
2018-12-16T11:26:24.731Z,100440.17
2018-12-16T11:28:54.908Z,100444.84
2018-12-16T11:31:25.211Z,100441.56
2018-12-16T11:33:55.522Z,100439.61
2018-12-16T11:36:25.327Z,100442.11
2018-12-16T11:38:55.451Z,100431.47
2018-12-16T11:41:25.357Z,100436.23
2018-12-16T11:43:59.746Z,100433.32
2018-12-16T11:46:35.266Z,100418.48
2018-12-16T11:49:08.391Z,100416.09
2018-12-16T11:51:40.068Z,100414.23
2018-12-16T11:54:10.265Z,100411.13
2018-12-16T11:56:40.404Z,100408.42
2018-12-16T11:59:10.518Z,100405.20
2018-12-16T12:01:40.754Z,100410.44
2018-12-16T12:04:10.776Z,100415.15
2018-12-16T12:06:40.527Z,100410.30
2018-12-16T12:09:10.495Z,100410.03
2018-12-16T12:11:40.578Z,100409.20
2018-12-16T12:14:10.438Z,100411.44
2018-12-16T12:16:40.548Z,100407.88
2018-12-16T12:19:10.432Z,100395.93
2018-12-16T12:21:40.499Z,100395.86
2018-12-16T12:24:11.815Z,100392.25
2018-12-16T12:26:41.601Z,100406.45
2018-12-16T12:29:11.561Z,100400.14
2018-12-16T12:31:41.508Z,100402.61
2018-12-16T12:34:11.503Z,100170.05
2018-12-16T12:36:41.370Z,100398.05
2018-12-16T12:39:11.740Z,100389.68
2018-12-16T12:41:41.536Z,100385.73
2018-12-16T12:44:11.412Z,100384.83
2018-12-16T12:46:41.327Z,100382.08
2018-12-16T12:49:11.756Z,100381.91
2018-12-16T12:51:41.601Z,100383.63
2018-12-16T12:54:11.992Z,100387.66
2018-12-16T12:56:43.127Z,100380.50
2018-12-16T12:59:13.306Z,100387.59
2018-12-16T13:01:43.344Z,100387.44
2018-12-16T13:04:14.031Z,100395.39
2018-12-16T13:06:44.218Z,100396.08
2018-12-16T13:09:14.104Z,100406.41
2018-12-16T13:11:49.803Z,100397.38
2018-12-16T13:14:19.962Z,100398.86
2018-12-16T13:16:50.210Z,100400.48
2018-12-16T13:19:20.467Z,100321.69
2018-12-16T13:21:50.295Z,100393.83
2018-12-16T13:24:20.643Z,100389.75
2018-12-16T13:26:51.129Z,100387.55
2018-12-16T13:29:21.343Z,100359.70
2018-12-16T13:31:51.424Z,100396.09
2018-12-16T13:34:21.275Z,100399.43
2018-12-16T13:36:52.107Z,100394.01
2018-12-16T13:39:22.241Z,100397.37
2018-12-16T13:41:52.737Z,100396.92
2018-12-16T13:44:22.521Z,100394.52
2018-12-16T13:46:52.650Z,100397.70
2018-12-16T13:49:23.080Z,100397.05
2018-12-16T13:51:53.837Z,100387.96
2018-12-16T13:54:25.239Z,100381.82
2018-12-16T13:56:55.181Z,100381.20
2018-12-16T13:59:25.252Z,100380.58
2018-12-16T14:01:55.349Z,100371.69
2018-12-16T14:04:25.991Z,100372.63
2018-12-16T14:06:56.204Z,100375.13
2018-12-16T14:09:27.480Z,100375.63
2018-12-16T14:11:58.164Z,100383.88
2018-12-16T14:14:39.720Z,100377.03
2018-12-16T14:17:09.626Z,100385.66
2018-12-16T14:19:39.493Z,100385.44
2018-12-16T14:22:09.645Z,100389.03
2018-12-16T14:24:39.638Z,100389.89
2018-12-16T14:29:55.720Z,100396.69
2018-12-16T14:32:25.750Z,100394.25
2018-12-16T14:34:58.386Z,100398.77
2018-12-16T14:37:31.618Z,100400.61
2018-12-16T14:40:04.275Z,100398.65
2018-12-16T14:42:34.706Z,100396.05
2018-12-16T14:45:05.263Z,100399.31
2018-12-16T14:47:35.307Z,100393.34
2018-12-16T14:50:06.362Z,100398.49
2018-12-16T14:52:36.774Z,100395.61
2018-12-16T14:55:08.213Z,100396.09
2018-12-16T14:57:38.481Z,100400.76
2018-12-16T15:00:11.459Z,100391.55
2018-12-16T15:02:41.540Z,100398.97
2018-12-16T15:05:12.819Z,100393.48
2018-12-16T15:07:43.405Z,100392.34
2018-12-16T15:10:13.580Z,100400.55
2018-12-16T15:12:43.495Z,100394.19
2018-12-16T15:15:14.131Z,100394.19
2018-12-16T15:17:44.536Z,100395.50
2018-12-16T15:20:14.383Z,100398.42
2018-12-16T15:22:44.311Z,100402.48
2018-12-16T15:25:14.163Z,100397.11
2018-12-16T15:27:44.171Z,100389.78
2018-12-16T15:30:14.297Z,100396.77
2018-12-16T15:32:44.435Z,100390.86
2018-12-16T15:35:14.627Z,100385.17
2018-12-16T15:37:44.536Z,100390.39
2018-12-16T15:40:15.545Z,100393.94
2018-12-16T15:42:45.488Z,100401.75
2018-12-16T15:45:15.672Z,100404.28
2018-12-16T15:47:45.569Z,100404.98
2018-12-16T15:50:15.605Z,100402.75
2018-12-16T15:52:45.523Z,100400.21
2018-12-16T15:55:15.708Z,100404.21
2018-12-16T15:57:51.712Z,100403.45
2018-12-16T16:00:24.522Z,100402.81
2018-12-16T16:02:55.492Z,100406.34
2018-12-16T16:05:25.379Z,100408.80
2018-12-16T16:07:55.427Z,100407.35
2018-12-16T16:10:25.420Z,100406.13
2018-12-16T16:12:55.813Z,100404.45
2018-12-16T16:15:26.515Z,100402.83
2018-12-16T16:17:56.402Z,100400.97
2018-12-16T16:20:26.638Z,100404.11
2018-12-16T16:22:56.495Z,100409.08
2018-12-16T16:25:26.544Z,100409.00
2018-12-16T16:27:56.681Z,100408.47
2018-12-16T16:30:27.071Z,100404.66
2018-12-16T16:32:57.172Z,100408.55
2018-12-16T16:35:28.784Z,100412.45
2018-12-16T16:38:00.809Z,100413.60
2018-12-16T16:40:32.584Z,100424.30
2018-12-16T16:43:02.556Z,100416.65
2018-12-16T16:45:32.754Z,100420.17
2018-12-16T16:48:02.635Z,100414.28
2018-12-16T16:50:36.684Z,100416.27
2018-12-16T16:53:06.517Z,100421.00
2018-12-16T16:55:36.389Z,100424.45
2018-12-16T16:58:06.391Z,100424.90
2018-12-16T17:00:36.422Z,100411.21
2018-12-16T17:03:06.404Z,100409.98
2018-12-16T17:05:36.327Z,100408.89
2018-12-16T17:08:06.142Z,100410.10
2018-12-16T17:10:36.384Z,100407.11
2018-12-16T17:13:06.405Z,100418.19
2018-12-16T17:15:36.292Z,100406.64
2018-12-16T17:18:06.459Z,100411.78
2018-12-16T17:20:36.724Z,100411.54
2018-12-16T17:23:06.676Z,100403.70
2018-12-16T17:25:36.595Z,100407.89
2018-12-16T17:28:06.872Z,100414.63
2018-12-16T17:30:37.142Z,100398.11
2018-12-16T17:33:07.239Z,100418.77
2018-12-16T17:35:37.440Z,100412.56
2018-12-16T17:38:07.298Z,100414.15
2018-12-16T17:40:37.106Z,100406.06
2018-12-16T17:43:07.252Z,100412.95
2018-12-16T17:45:37.218Z,100414.72
2018-12-16T17:48:07.560Z,100413.72
2018-12-16T17:50:37.583Z,100413.17
2018-12-16T17:53:07.626Z,100412.61
2018-12-16T17:55:37.419Z,100407.80
2018-12-16T17:58:07.256Z,100413.95
2018-12-16T18:00:37.488Z,100402.17
2018-12-16T18:03:07.324Z,100404.77
2018-12-16T18:05:38.020Z,100408.22
2018-12-16T18:08:09.363Z,100399.95
2018-12-16T18:10:39.503Z,100405.48
2018-12-16T18:13:12.432Z,100401.01
2018-12-16T18:15:42.470Z,100404.61
2018-12-16T18:18:14.311Z,100399.95
2018-12-16T18:20:44.406Z,100403.85
2018-12-16T18:23:14.417Z,100406.25
2018-12-16T18:25:44.578Z,100401.59
2018-12-16T18:28:16.357Z,100406.01
2018-12-16T18:30:46.418Z,100410.33
2018-12-16T18:33:16.631Z,100414.47
2018-12-16T18:35:47.215Z,100412.40
2018-12-16T18:38:18.120Z,100418.02
2018-12-16T18:40:48.845Z,100413.13
2018-12-16T18:43:19.567Z,100411.30
2018-12-16T18:45:50.865Z,100411.38
2018-12-16T18:48:20.994Z,100412.16
2018-12-16T18:50:54.460Z,100408.02
2018-12-16T18:53:24.708Z,100404.95
2018-12-16T18:55:54.768Z,100394.78
2018-12-16T18:58:25.195Z,100396.61
2018-12-16T19:00:55.625Z,100397.02
2018-12-16T19:03:25.840Z,100402.47
2018-12-16T19:05:55.798Z,100396.89
2018-12-16T19:08:25.974Z,100397.80
2018-12-16T19:10:56.055Z,100402.36
2018-12-16T19:13:26.235Z,100401.99
2018-12-16T19:15:56.304Z,100397.19
2018-12-16T19:18:27.927Z,100402.98
2018-12-16T19:20:58.422Z,100397.73
2018-12-16T19:23:28.337Z,100398.98
2018-12-16T19:25:58.211Z,100402.27
2018-12-16T19:28:28.313Z,100405.91
2018-12-16T19:30:58.254Z,100401.06
2018-12-16T19:33:28.401Z,100406.25
2018-12-16T19:35:58.242Z,100402.95
2018-12-16T19:38:28.632Z,100409.17
2018-12-16T19:40:58.512Z,100402.30
2018-12-16T19:43:28.460Z,100408.61
2018-12-16T19:45:58.632Z,100407.73
2018-12-16T19:48:28.928Z,100404.09
2018-12-16T19:50:59.443Z,100411.73
2018-12-16T19:53:30.085Z,100399.99
2018-12-16T19:56:00.204Z,100415.44
2018-12-16T19:58:33.199Z,100419.56
2018-12-16T20:01:03.874Z,100425.66
2018-12-16T20:03:34.189Z,100425.55
2018-12-16T20:06:09.629Z,100423.90
2018-12-16T20:08:39.603Z,100421.08
2018-12-16T20:11:10.208Z,100428.05
2018-12-16T20:13:40.400Z,100420.06
2018-12-16T20:16:10.479Z,100419.67
2018-12-16T20:18:40.646Z,100420.00
2018-12-16T20:21:10.470Z,100416.25
2018-12-16T20:23:40.281Z,100415.45
2018-12-16T20:26:10.491Z,100417.71
2018-12-16T20:28:40.499Z,100425.72
2018-12-16T20:31:10.471Z,100427.52
2018-12-16T20:33:40.623Z,100427.91
2018-12-16T20:36:10.464Z,100429.20
2018-12-16T20:38:40.317Z,100441.52
2018-12-16T20:41:10.469Z,100446.64
2018-12-16T20:43:40.872Z,100440.09
2018-12-16T20:46:10.947Z,100438.27
2018-12-16T20:48:41.185Z,100438.56
2018-12-16T20:51:11.787Z,100410.39
2018-12-16T20:53:41.658Z,100433.18
2018-12-16T20:56:12.180Z,100440.97
2018-12-16T20:58:42.527Z,100435.25
2018-12-16T21:01:21.489Z,100442.91
2018-12-16T21:03:51.965Z,100444.98
2018-12-16T21:06:22.281Z,100432.76
2018-12-16T21:08:52.205Z,100439.25
2018-12-16T21:11:27.855Z,100450.55
2018-12-16T21:14:02.688Z,100452.11
2018-12-16T21:16:37.361Z,100445.47
2018-12-16T21:19:07.556Z,100449.89
2018-12-16T21:21:38.052Z,100441.38
2018-12-16T21:24:08.673Z,100441.67
2018-12-16T21:26:39.154Z,100444.55
2018-12-16T21:29:09.299Z,100445.33
2018-12-16T21:31:42.483Z,100433.05
2018-12-16T21:34:12.430Z,100441.48
2018-12-16T21:36:43.320Z,100428.58
2018-12-16T21:39:14.069Z,100445.81
2018-12-16T21:41:44.834Z,100444.84
2018-12-16T21:44:14.918Z,100443.98
2018-12-16T21:46:45.673Z,100451.64
2018-12-16T21:49:16.127Z,100454.09
2018-12-16T21:51:46.584Z,100453.27
2018-12-16T21:54:16.916Z,100459.62
2018-12-16T21:56:46.958Z,100462.85
2018-12-16T21:59:17.824Z,100458.19
2018-12-16T22:01:48.444Z,100461.17
2018-12-16T22:04:20.832Z,100457.03
2018-12-16T22:06:51.274Z,100457.36
2018-12-16T22:09:22.593Z,100456.45
2018-12-16T22:11:52.517Z,100449.86
2018-12-16T22:14:23.085Z,100450.39
2018-12-16T22:16:53.419Z,100455.20
2018-12-16T22:19:23.957Z,100457.03
2018-12-16T22:21:54.286Z,100453.77
2018-12-16T22:24:24.186Z,100455.59
2018-12-16T22:26:54.568Z,100452.99
2018-12-16T22:29:24.850Z,100445.77
2018-12-16T22:31:55.070Z,100442.25
2018-12-16T22:34:25.306Z,100451.78
2018-12-16T22:36:55.636Z,100447.83
2018-12-16T22:39:25.940Z,100446.59
2018-12-16T22:41:56.558Z,100452.17
2018-12-16T22:44:26.345Z,100449.56
2018-12-16T22:46:56.587Z,100440.32
2018-12-16T22:49:26.387Z,100444.52
2018-12-16T22:51:56.480Z,100451.39
2018-12-16T22:54:26.781Z,100458.28
2018-12-16T22:56:56.619Z,100455.30
2018-12-16T22:59:26.643Z,100459.58
2018-12-16T23:01:56.415Z,100460.59
2018-12-16T23:04:26.546Z,100460.84
2018-12-16T23:06:56.631Z,100455.34
2018-12-16T23:09:26.452Z,100445.24
2018-12-16T23:11:57.695Z,100445.95
2018-12-16T23:14:27.532Z,100444.57
2018-12-16T23:16:57.368Z,100434.70
2018-12-16T23:19:27.221Z,100434.70
2018-12-16T23:21:57.130Z,100442.11
2018-12-16T23:24:28.094Z,100439.89
2018-12-16T23:26:58.219Z,100445.34
2018-12-16T23:31:59.171Z,100439.17
2018-12-16T23:34:29.415Z,100430.13
2018-12-16T23:36:59.756Z,100429.69
2018-12-16T23:39:29.499Z,100436.09
2018-12-16T23:41:59.479Z,100429.45
2018-12-16T23:44:29.686Z,100419.73
2018-12-16T23:46:59.674Z,100429.30
2018-12-16T23:49:29.755Z,100426.76
2018-12-16T23:51:59.524Z,100427.62
2018-12-16T23:54:29.380Z,100429.98
2018-12-16T23:56:59.302Z,100439.46
2018-12-16T23:59:29.646Z,100426.70
